.
WxDataArchive / Data Records for 2006-09-10
2006-09-09 September 2006 2006-09-11

Data Records for Sunday, 10 September 2006

Time	Temp	Chill	HIndex	Humid	Dewpt	 Wind 	HiWind	WindDir	Rain 	Barom 
-----	----	-----	------	-----	-----	------	------	-------	-----	----- 
00:00	65.0	65.0	65.0	87	61.0	2	5	90	0.00	30.073 
00:05	65.2	65.2	65.2	87	61.2	2	4	90	0.00	30.073 
00:10	65.2	65.2	65.2	87	61.2	3	7	90	0.00	30.073 
00:15	64.8	64.8	64.8	85	60.2	2	6	90	0.00	30.080 
00:20	64.5	64.5	64.5	86	60.2	2	6	90	0.00	30.080 
00:25	64.2	64.2	64.2	86	59.9	3	6	90	0.00	30.080 
00:30	63.9	63.9	63.9	86	59.6	3	6	90	0.00	30.084 
00:35	63.5	63.5	63.5	85	58.9	3	9	112	0.00	30.084 
00:40	63.2	63.2	63.2	85	58.6	2	5	45	0.00	30.084 
00:45	63.1	63.1	63.1	86	58.8	2	5	90	0.00	30.087 
00:50	62.9	62.9	62.9	86	58.6	2	5	90	0.00	30.087 
00:55	62.7	62.7	62.7	86	58.4	2	7	90	0.00	30.087 
01:00	62.6	62.6	62.6	86	58.3	3	6	90	0.00	30.090 
01:05	62.4	62.4	62.4	86	58.2	4	9	90	0.00	30.090 
01:10	62.4	62.4	62.4	86	58.2	3	8	112	0.00	30.090 
01:15	62.3	62.3	62.3	86	58.1	2	6	90	0.00	30.094 
01:20	62.1	62.1	62.1	85	57.5	4	9	90	0.00	30.094 
01:25	62.0	62.0	62.0	86	57.8	3	7	90	0.00	30.094 
01:30	61.8	61.8	61.8	86	57.6	3	10	112	0.00	30.098 
01:35	61.6	61.6	61.6	86	57.4	3	10	90	0.00	30.098 
01:40	61.5	61.5	61.5	86	57.3	3	6	112	0.00	30.098 
01:45	61.3	61.3	61.3	86	57.1	2	6	90	0.00	30.100 
01:50	61.2	61.2	61.2	86	57.0	3	6	90	0.00	30.100 
01:55	61.2	61.2	61.2	86	57.0	2	5	45	0.00	30.100 
02:00	61.0	61.0	61.0	87	57.1	2	6	112	0.00	30.099 
02:05	61.0	61.0	61.0	87	57.1	2	4	90	0.00	30.099 
02:10	60.9	60.9	60.9	87	57.0	2	6	90	0.00	30.099 
02:15	60.7	60.7	60.7	87	56.8	1	4	90	0.00	30.095 
02:20	60.5	60.5	60.5	88	56.9	2	6	68	0.00	30.095 
02:25	60.4	60.4	60.4	88	56.8	2	7	112	0.00	30.095 
02:30	60.2	60.2	60.2	88	56.6	2	6	90	0.00	30.100 
02:35	60.1	60.1	60.1	89	56.8	2	6	112	0.00	30.100 
02:40	59.9	59.9	59.9	89	56.6	3	7	90	0.00	30.100 
02:45	59.9	59.9	59.9	90	57.0	2	5	90	0.00	30.097 
02:50	59.8	59.8	59.8	90	56.9	2	5	112	0.00	30.097 
02:55	59.6	59.6	59.6	90	56.7	2	6	112	0.00	30.097 
03:00	59.5	59.5	59.5	90	56.6	2	6	90	0.00	30.098 
03:05	59.5	59.5	59.5	89	56.3	3	6	90	0.00	30.098 
03:10	59.5	59.5	59.5	89	56.3	2	6	90	0.00	30.098 
03:15	59.5	59.5	59.5	89	56.3	2	5	90	0.00	30.100 
03:20	59.5	59.5	59.5	88	55.9	3	7	90	0.00	30.100 
03:25	59.5	59.5	59.5	87	55.6	3	5	90	0.00	30.100 
03:30	59.6	59.6	59.6	86	55.4	2	5	90	0.00	30.099 
03:35	59.6	59.6	59.6	86	55.4	2	6	90	0.00	30.099 
03:40	59.8	59.8	59.8	86	55.6	2	5	90	0.00	30.099 
03:45	59.8	59.8	59.8	85	55.3	3	5	90	0.00	30.096 
03:50	59.8	59.8	59.8	85	55.3	2	5	90	0.00	30.096 
03:55	59.9	59.9	59.9	85	55.4	2	5	112	0.00	30.096 
04:00	59.9	59.9	59.9	85	55.4	2	6	90	0.00	30.092 
04:05	59.9	59.9	59.9	85	55.4	2	6	112	0.00	30.092 
04:10	59.9	59.9	59.9	85	55.4	1	4	68	0.00	30.092 
04:15	59.8	59.8	59.8	85	55.3	1	4	90	0.00	30.096 
04:20	59.8	59.8	59.8	85	55.3	2	5	90	0.00	30.096 
04:25	59.8	59.8	59.8	85	55.3	2	5	90	0.00	30.096 
04:30	59.6	59.6	59.6	85	55.1	1	4	112	0.00	30.090 
04:35	59.6	59.6	59.6	86	55.4	1	3	90	0.00	30.090 
04:40	59.6	59.6	59.6	86	55.4	1	4	112	0.00	30.090 
04:45	59.5	59.5	59.5	86	55.3	1	4	90	0.00	30.094 
04:50	59.5	59.5	59.5	85	55.0	2	4	90	0.00	30.094 
04:55	59.5	59.5	59.5	85	55.0	2	5	112	0.00	30.094 
05:00	59.3	59.3	59.3	84	54.5	1	4	112	0.00	30.101 
05:05	59.3	59.3	59.3	85	54.8	1	4	45	0.00	30.101 
05:10	59.2	59.2	59.2	84	54.4	2	5	90	0.00	30.101 
05:15	59.0	59.0	59.0	84	54.2	2	5	90	0.00	30.105 
05:20	58.9	58.9	58.9	84	54.1	3	7	90	0.00	30.105 
05:25	58.6	58.6	58.6	82	53.1	3	7	90	0.00	30.105 
05:30	58.3	58.3	58.3	82	52.8	3	10	112	0.00	30.108 
05:35	58.1	58.1	58.1	82	52.6	2	7	112	0.00	30.108 
05:40	58.0	58.0	58.0	82	52.5	2	5	90	0.00	30.108 
05:45	57.8	57.8	57.8	78	51.0	2	6	90	0.00	30.112 
05:50	57.6	57.6	57.6	81	51.8	2	5	112	0.00	30.112 
05:55	57.6	57.6	57.6	80	51.5	3	6	112	0.00	30.112 
06:00	57.5	57.5	57.5	80	51.4	2	4	90	0.00	30.117 
06:05	57.5	57.5	57.5	79	51.0	2	10	90	0.00	30.117 
06:10	57.3	57.3	57.3	79	50.8	3	7	90	0.00	30.117 
06:15	57.2	57.2	57.2	78	50.4	3	11	112	0.00	30.119 
06:20	57.2	57.2	57.2	78	50.4	3	6	112	0.00	30.119 
06:25	57.0	57.0	57.0	78	50.2	2	6	112	0.00	30.119 
06:30	57.0	57.0	57.0	79	50.5	2	9	90	0.00	30.118 
06:35	57.0	57.0	57.0	79	50.5	2	6	90	0.00	30.118 
06:40	56.9	56.9	56.9	79	50.5	2	7	90	0.00	30.118 
06:45	56.9	56.9	56.9	79	50.5	1	3	90	0.00	30.117 
06:50	56.9	56.9	56.9	79	50.5	2	4	90	0.00	30.117 
06:55	56.9	56.9	56.9	79	50.5	2	10	112	0.00	30.117 
07:00	56.7	56.7	56.7	80	50.6	1	3	45	0.00	30.117 
07:05	56.7	56.7	56.7	79	50.3	2	4	90	0.00	30.117 
07:10	56.7	56.7	56.7	79	50.3	2	5	90	0.00	30.117 
07:15	56.7	56.7	56.7	79	50.3	2	4	112	0.00	30.125 
07:20	56.7	56.7	56.7	80	50.6	1	3	90	0.00	30.125 
07:25	56.7	56.7	56.7	79	50.3	2	6	90	0.00	30.125 
07:30	56.7	56.7	56.7	80	50.6	2	7	112	0.00	30.130 
07:35	56.7	56.7	56.7	79	50.3	2	6	90	0.00	30.130 
07:40	56.7	56.7	56.7	79	50.3	3	7	90	0.00	30.130 
07:45	56.7	56.7	56.7	79	50.3	1	4	90	0.00	30.140 
07:50	56.9	56.9	56.9	79	50.5	2	5	112	0.00	30.140 
07:55	56.9	56.9	56.9	79	50.5	1	9	112	0.00	30.140 
08:00	56.9	56.9	56.9	78	50.1	2	5	90	0.00	30.143 
08:05	56.9	56.9	56.9	79	50.5	2	7	112	0.00	30.143 
08:10	57.0	57.0	57.0	80	50.9	1	4	68	0.00	30.143 
08:15	57.0	57.0	57.0	79	50.5	2	5	112	0.00	30.151 
08:20	57.2	57.2	57.2	79	50.7	2	6	90	0.00	30.151 
08:25	57.2	57.2	57.2	79	50.7	2	5	90	0.00	30.151 
08:30	57.3	57.3	57.3	79	50.8	2	5	90	0.00	30.153 
08:35	57.3	57.3	57.3	79	50.8	2	6	90	0.00	30.153 
08:40	57.5	57.5	57.5	79	51.0	2	6	90	0.00	30.153 
08:45	57.5	57.5	57.5	79	51.0	2	6	90	0.00	30.162 
08:50	57.6	57.6	57.6	80	51.5	1	4	90	0.00	30.162 
08:55	57.8	57.8	57.8	80	51.7	1	4	90	0.00	30.162 
09:00	57.8	57.8	57.8	80	51.7	2	6	112	0.00	30.154 
09:05	57.8	57.8	57.8	81	52.0	1	4	112	0.00	30.154 
09:10	58.0	58.0	58.0	81	52.2	1	3	112	0.00	30.154 
09:15	58.3	58.3	58.3	81	52.5	1	3	90	0.00	30.151 
09:20	58.4	58.4	58.4	81	52.6	2	4	112	0.00	30.151 
09:25	58.7	58.7	58.7	80	52.5	2	4	90	0.00	30.151 
09:30	59.0	59.0	59.0	79	52.5	2	5	90	0.00	30.149 
09:35	59.0	59.0	59.0	78	52.1	2	7	90	0.00	30.149 
09:40	59.0	59.0	59.0	78	52.1	3	6	90	0.00	30.149 
09:45	59.0	59.0	59.0	79	52.5	3	5	112	0.00	30.162 
09:50	59.0	59.0	59.0	78	52.1	4	10	90	0.00	30.162 
09:55	59.0	59.0	59.0	79	52.5	3	11	112	0.00	30.162 
10:00	59.0	59.0	59.0	79	52.5	3	9	90	0.00	30.163 
10:05	59.2	59.2	59.2	78	52.3	3	7	90	0.00	30.163 
10:10	59.3	59.3	59.3	78	52.4	3	5	90	0.00	30.163 
10:15	59.3	59.3	59.3	78	52.4	3	7	90	0.00	30.164 
10:20	59.5	59.5	59.5	78	52.6	3	8	90	0.00	30.164 
10:25	59.6	59.6	59.6	78	52.7	3	7	90	0.00	30.164 
10:30	59.6	59.6	59.6	78	52.7	3	6	90	0.00	30.164 
10:35	59.8	59.8	59.8	77	52.6	3	7	112	0.00	30.164 
10:40	59.9	59.9	59.9	78	53.0	2	4	112	0.00	30.164 
10:45	60.1	60.1	60.1	77	52.9	3	6	90	0.00	30.170 
10:50	60.4	60.4	60.4	77	53.2	3	6	90	0.00	30.170 
10:55	60.9	60.9	60.9	77	53.6	2	6	90	0.00	30.170 
11:00	61.0	61.0	61.0	77	53.7	1	4	90	0.00	30.172 
11:05	61.0	61.0	61.0	76	53.4	4	9	90	0.00	30.172 
11:10	61.0	61.0	61.0	76	53.4	2	6	112	0.00	30.172 
11:15	61.0	61.0	61.0	76	53.4	4	9	90	0.00	30.173 
11:20	61.2	61.2	61.2	77	53.9	2	5	90	0.00	30.173 
11:25	61.2	61.2	61.2	76	53.6	3	6	90	0.00	30.173 
11:30	61.0	61.0	61.0	76	53.4	3	6	90	0.00	30.176 
11:35	61.2	61.2	61.2	77	53.9	2	5	90	0.00	30.176 
11:40	61.3	61.3	61.3	76	53.7	3	6	90	0.00	30.176 
11:45	61.6	61.6	61.6	75	53.6	3	8	112	0.00	30.175 
11:50	62.1	62.1	62.1	75	54.1	2	6	112	0.00	30.175 
11:55	62.6	62.6	62.6	74	54.2	2	6	112	0.00	30.175 
12:00	62.6	62.6	62.6	74	54.2	4	7	90	0.00	30.167 
12:05	62.3	62.3	62.3	74	53.9	3	9	90	0.00	30.167 
12:10	62.0	62.0	62.0	74	53.6	3	9	90	0.00	30.167 
12:15	62.0	62.0	62.0	75	54.0	4	13	112	0.00	30.169 
12:20	62.1	62.1	62.1	75	54.1	3	6	112	0.00	30.169 
12:25	62.4	62.4	62.4	75	54.4	2	5	112	0.00	30.169 
12:30	62.7	62.7	62.7	73	53.9	3	7	90	0.00	30.164 
12:35	63.1	63.1	63.1	73	54.3	3	7	90	0.00	30.164 
12:40	63.1	63.1	63.1	73	54.3	3	7	90	0.00	30.164 
12:45	62.9	62.9	62.9	73	54.1	2	7	90	0.00	30.164 
12:50	62.9	62.9	62.9	73	54.1	3	8	112	0.00	30.164 
12:55	62.9	62.9	62.9	73	54.1	4	12	90	0.00	30.164 
13:00	63.2	63.2	63.2	71	53.6	3	8	90	0.00	30.161 
13:05	63.5	63.5	63.5	73	54.7	2	7	112	0.00	30.161 
13:10	63.5	63.5	63.5	72	54.3	4	7	90	0.00	30.161 
13:15	63.4	63.4	63.4	72	54.2	3	9	90	0.00	30.165 
13:20	63.2	63.2	63.2	71	53.6	3	11	90	0.00	30.165 
13:25	63.5	63.5	63.5	73	54.7	2	5	90	0.00	30.165 
13:30	63.9	63.9	63.9	71	54.3	3	6	112	0.00	30.163 
13:35	64.0	64.0	64.0	71	54.4	4	8	90	0.00	30.163 
13:40	64.3	64.3	64.3	73	55.5	3	7	90	0.00	30.163 
13:45	64.5	64.5	64.5	70	54.5	4	10	112	0.00	30.159 
13:50	64.5	64.5	64.5	70	54.5	3	13	90	0.00	30.159 
13:55	64.5	64.5	64.5	71	54.9	3	7	90	0.00	30.159 
14:00	64.7	64.7	64.7	69	54.3	4	9	90	0.00	30.161 
14:05	64.5	64.5	64.5	70	54.5	4	10	112	0.00	30.161 
14:10	64.5	64.5	64.5	70	54.5	5	15	90	0.00	30.161 
14:15	64.7	64.7	64.7	70	54.7	6	12	90	0.00	30.162 
14:20	65.0	65.0	65.0	70	55.0	4	10	90	0.00	30.162 
14:25	65.5	65.5	65.5	71	55.8	3	7	90	0.00	30.162 
14:30	66.0	66.0	66.0	68	55.1	3	7	90	0.00	30.158 
14:35	66.3	66.3	66.3	67	55.0	3	9	90	0.00	30.158 
14:40	66.1	66.1	66.1	68	55.2	4	13	90	0.00	30.158 
14:45	66.0	66.0	66.0	67	54.7	3	10	112	0.00	30.156 
14:50	65.8	65.8	65.8	69	55.3	3	7	112	0.00	30.156 
14:55	65.6	65.6	65.6	67	54.3	3	5	90	0.00	30.156 
15:00	65.6	65.6	65.6	68	54.7	3	6	112	0.00	30.150 
15:05	65.3	65.3	65.3	68	54.5	3	9	90	0.00	30.150 
15:10	65.3	65.3	65.3	69	54.9	3	6	90	0.00	30.150 
15:15	65.5	65.5	65.5	68	54.7	2	4	90	0.00	30.146 
15:20	65.5	65.5	65.5	66	53.8	3	10	90	0.00	30.146 
15:25	65.5	65.5	65.5	67	54.2	3	7	90	0.00	30.146 
15:30	65.5	65.5	65.5	66	53.8	3	9	90	0.00	30.147 
15:35	65.2	65.2	65.2	68	54.4	4	7	112	0.00	30.147 
15:40	65.2	65.2	65.2	67	54.0	3	6	90	0.00	30.147 
15:45	65.2	65.2	65.2	66	53.5	3	6	90	0.00	30.148 
15:50	65.2	65.2	65.2	67	54.0	3	9	90	0.00	30.148 
15:55	65.0	65.0	65.0	68	54.2	4	15	90	0.00	30.148 
16:00	65.2	65.2	65.2	67	54.0	4	10	112	0.00	30.146 
16:05	65.5	65.5	65.5	67	54.2	4	11	90	0.00	30.146 
16:10	65.8	65.8	65.8	66	54.1	4	10	112	0.00	30.146 
16:15	66.0	66.0	66.0	66	54.3	3	9	90	0.00	30.143 
16:20	66.1	66.1	66.1	66	54.4	2	6	90	0.00	30.143 
16:25	66.3	66.3	66.3	66	54.6	4	10	90	0.00	30.143 
16:30	66.4	66.4	66.4	67	55.1	3	7	90	0.00	30.137 
16:35	66.1	66.1	66.1	66	54.4	4	10	90	0.00	30.137 
16:40	66.0	66.0	66.0	66	54.3	3	7	90	0.00	30.137 
16:45	66.1	66.1	66.1	67	54.8	4	13	90	0.00	30.138 
16:50	66.1	66.1	66.1	67	54.8	3	6	90	0.00	30.138 
16:55	65.8	65.8	65.8	67	54.5	4	7	90	0.00	30.138 
17:00	65.6	65.6	65.6	67	54.3	4	10	90	0.00	30.136 
17:05	65.3	65.3	65.3	68	54.5	3	9	90	0.00	30.136 
17:10	65.2	65.2	65.2	68	54.4	3	6	112	0.00	30.136 
17:15	65.0	65.0	65.0	68	54.2	4	9	112	0.00	30.129 
17:20	64.8	64.8	64.8	67	53.6	4	10	112	0.00	30.129 
17:25	64.8	64.8	64.8	69	54.4	3	5	90	0.00	30.129 
17:30	64.8	64.8	64.8	68	54.0	4	11	90	0.00	30.133 
17:35	65.2	65.2	65.2	68	54.4	3	10	112	0.00	30.133 
17:40	65.2	65.2	65.2	67	54.0	4	9	112	0.00	30.133 
17:45	65.2	65.2	65.2	69	54.8	3	10	90	0.00	30.128 
17:50	64.7	64.7	64.7	69	54.3	5	15	90	0.00	30.128 
17:55	64.2	64.2	64.2	70	54.2	4	13	112	0.00	30.128 
18:00	64.2	64.2	64.2	69	53.8	5	10	90	0.00	30.131 
18:05	64.3	64.3	64.3	69	53.9	3	11	90	0.00	30.131 
18:10	64.5	64.5	64.5	70	54.5	3	9	90	0.00	30.131 
18:15	64.5	64.5	64.5	69	54.1	3	10	112	0.00	30.129 
18:20	64.3	64.3	64.3	70	54.3	4	9	90	0.00	30.129 
18:25	64.0	64.0	64.0	69	53.6	3	7	90	0.00	30.129 
18:30	63.9	63.9	63.9	70	53.9	3	6	90	0.00	30.134 
18:35	63.7	63.7	63.7	70	53.7	4	10	90	0.00	30.134 
18:40	63.4	63.4	63.4	69	53.0	3	6	90	0.00	30.134 
18:45	63.2	63.2	63.2	71	53.6	3	7	90	0.00	30.133 
18:50	63.1	63.1	63.1	72	53.9	4	9	90	0.00	30.133 
18:55	62.9	62.9	62.9	72	53.7	4	10	68	0.00	30.133 
19:00	62.7	62.7	62.7	72	53.5	4	10	90	0.00	30.135 
19:05	62.7	62.7	62.7	73	53.9	3	7	90	0.00	30.135 
19:10	62.6	62.6	62.6	73	53.8	3	9	90	0.00	30.135 
19:15	62.6	62.6	62.6	73	53.8	3	10	90	0.00	30.139 
19:20	62.4	62.4	62.4	74	54.0	3	8	90	0.00	30.139 
19:25	62.4	62.4	62.4	75	54.4	3	10	90	0.00	30.139 
19:30	62.4	62.4	62.4	76	54.7	3	7	90	0.00	30.138 
19:35	62.3	62.3	62.3	76	54.6	4	7	90	0.00	30.138 
19:40	62.1	62.1	62.1	77	54.8	4	6	90	0.00	30.138 
19:45	62.1	62.1	62.1	77	54.8	4	9	90	0.00	30.138 
19:50	62.0	62.0	62.0	77	54.7	3	9	90	0.00	30.138 
19:55	61.8	61.8	61.8	77	54.5	3	11	90	0.00	30.138 
20:00	61.8	61.8	61.8	78	54.9	3	10	90	0.00	30.136 
20:05	61.6	61.6	61.6	78	54.7	4	12	90	0.00	30.136 
20:10	61.6	61.6	61.6	79	55.0	4	8	90	0.00	30.136 
20:15	61.6	61.6	61.6	79	55.0	2	6	90	0.00	30.138 
20:20	61.5	61.5	61.5	79	54.9	5	12	90	0.00	30.138 
20:25	61.5	61.5	61.5	79	54.9	4	9	90	0.00	30.138 
20:30	61.5	61.5	61.5	79	54.9	3	6	112	0.00	30.145 
20:35	61.3	61.3	61.3	79	54.7	4	10	90	0.00	30.145 
20:40	61.3	61.3	61.3	79	54.7	4	11	90	0.00	30.145 
20:45	61.3	61.3	61.3	79	54.7	3	6	90	0.00	30.150 
20:50	61.2	61.2	61.2	79	54.6	3	9	90	0.00	30.150 
20:55	61.2	61.2	61.2	79	54.6	2	5	90	0.00	30.150 
21:00	61.2	61.2	61.2	80	55.0	2	7	90	0.00	30.156 
21:05	61.0	61.0	61.0	79	54.4	3	7	90	0.00	30.156 
21:10	61.0	61.0	61.0	80	54.8	3	6	90	0.00	30.156 
21:15	60.9	60.9	60.9	80	54.7	3	7	90	0.00	30.154 
21:20	60.9	60.9	60.9	80	54.7	2	6	90	0.00	30.154 
21:25	60.7	60.7	60.7	80	54.5	3	9	112	0.00	30.154 
21:30	60.7	60.7	60.7	80	54.5	3	9	90	0.00	30.152 
21:35	60.5	60.5	60.5	80	54.3	3	9	90	0.00	30.152 
21:40	60.4	60.4	60.4	81	54.5	3	9	90	0.00	30.152 
21:45	60.2	60.2	60.2	81	54.3	3	6	112	0.00	30.159 
21:50	60.1	60.1	60.1	81	54.2	2	4	90	0.00	30.159 
21:55	59.9	59.9	59.9	81	54.1	3	7	90	0.00	30.159 
22:00	59.6	59.6	59.6	82	54.1	2	5	90	0.00	30.164 
22:05	59.5	59.5	59.5	82	54.0	2	4	90	0.00	30.164 
22:10	59.3	59.3	59.3	82	53.8	2	6	90	0.00	30.164 
22:15	59.3	59.3	59.3	82	53.8	4	11	112	0.00	30.165 
22:20	59.2	59.2	59.2	82	53.7	2	7	90	0.00	30.165 
22:25	59.0	59.0	59.0	83	53.8	2	6	112	0.00	30.165 
22:30	59.0	59.0	59.0	83	53.8	2	5	90	0.00	30.178 
22:35	58.9	58.9	58.9	84	54.1	1	2	90	0.00	30.178 
22:40	58.9	58.9	58.9	84	54.1	1	4	112	0.00	30.178 
22:45	58.7	58.7	58.7	84	53.9	2	4	112	0.00	30.170 
22:50	58.6	58.6	58.6	84	53.8	2	6	90	0.00	30.170 
22:55	58.4	58.4	58.4	84	53.6	1	3	90	0.00	30.170 
23:00	58.4	58.4	58.4	84	53.6	2	6	112	0.00	30.166 
23:05	58.3	58.3	58.3	85	53.8	2	5	90	0.00	30.166 
23:10	58.1	58.1	58.1	85	53.6	2	4	90	0.00	30.166 
23:15	58.1	58.1	58.1	85	53.6	2	5	90	0.00	30.159 
23:20	58.1	58.1	58.1	85	53.6	1	3	90	0.00	30.159 
23:25	58.0	58.0	58.0	86	53.8	2	6	112	0.00	30.159 
23:30	58.0	58.0	58.0	86	53.8	2	5	112	0.00	30.159 
23:35	58.0	58.0	58.0	86	53.8	2	5	90	0.00	30.159 
23:40	58.0	58.0	58.0	86	53.8	2	5	90	0.00	30.159 
23:45	57.8	57.8	57.8	86	53.6	1	4	90	0.00	30.162 
23:50	57.8	57.8	57.8	87	54.0	2	5	90	0.00	30.162 
23:55	57.8	57.8	57.8	87	54.0	1	3	90	0.00	30.162 

CoCoRaHS
IN-AL-39
A2 Web Hosting
Creative Commons License
GoDaddy
Look for:

loaded 2017-10-16 18:16:59 • last modified 2010-11-18 10:43:29
Privacy PolicyDisclaimer
• wx.awcolley.com is powered by PmWiki v.2002016 •
• all content (unless otherwise noted) © 2017 A W Colley